sensor_id;sensor_type;location;lat;lon;timestamp;P1;durP1;ratioP1;P2;durP2;ratioP2
215;SDS011;70668;48.81286795;9.14184224;2023-07-13T00:00:16;5.93;;;2.30;;
215;SDS011;70668;48.81286795;9.14184224;2023-07-13T00:02:48;5.87;;;2.80;;
215;SDS011;70668;48.81286795;9.14184224;2023-07-13T00:05:18;5.50;;;2.60;;
215;SDS011;70668;48.81286795;9.14184224;2023-07-13T00:07:47;5.27;;;2.30;;
215;SDS011;70668;48.81286795;9.14184224;2023-07-13T00:10:16;5.53;;;2.67;;
215;SDS011;70668;48.81286795;9.14184224;2023-07-13T00:12:45;5.13;;;3.00;;
215;SDS011;70668;48.81286795;9.14184224;2023-07-13T00:15:14;5.90;;;2.70;;
215;SDS011;70668;48.81286795;9.14184224;2023-07-13T00:17:48;6.77;;;2.90;;
215;SDS011;70668;48.81286795;9.14184224;2023-07-13T00:20:17;5.80;;;2.80;;
215;SDS011;70668;48.81286795;9.14184224;2023-07-13T00:22:43;8.33;;;2.87;;
215;SDS011;70668;48.81286795;9.14184224;2023-07-13T00:25:12;6.03;;;2.37;;
215;SDS011;70668;48.81286795;9.14184224;2023-07-13T00:27:41;8.73;;;2.60;;
215;SDS011;70668;48.81286795;9.14184224;2023-07-13T00:30:10;10.43;;;3.00;;
215;SDS011;70668;48.81286795;9.14184224;2023-07-13T00:32:39;8.37;;;2.77;;
215;SDS011;70668;48.81286795;9.14184224;2023-07-13T00:35:10;5.83;;;2.77;;
215;SDS011;70668;48.81286795;9.14184224;2023-07-13T00:37:40;8.40;;;2.77;;
215;SDS011;70668;48.81286795;9.14184224;2023-07-13T00:40:10;8.20;;;2.87;;
215;SDS011;70668;48.81286795;9.14184224;2023-07-13T00:42:40;5.40;;;2.80;;
215;SDS011;70668;48.81286795;9.14184224;2023-07-13T00:48:07;6.23;;;2.80;;
215;SDS011;70668;48.81286795;9.14184224;2023-07-13T00:50:38;7.30;;;2.83;;
215;SDS011;70668;48.81286795;9.14184224;2023-07-13T00:53:07;15.57;;;2.60;;
215;SDS011;70668;48.81286795;9.14184224;2023-07-13T00:55:36;5.93;;;2.90;;
215;SDS011;70668;48.81286795;9.14184224;2023-07-13T00:58:06;8.13;;;2.83;;
215;SDS011;70668;48.81286795;9.14184224;2023-07-13T01:00:35;5.20;;;2.50;;
215;SDS011;70668;48.81286795;9.14184224;2023-07-13T01:03:04;5.43;;;2.70;;
215;SDS011;70668;48.81286795;9.14184224;2023-07-13T01:05:34;7.70;;;3.03;;
215;SDS011;70668;48.81286795;9.14184224;2023-07-13T01:08:06;6.60;;;2.53;;
215;SDS011;70668;48.81286795;9.14184224;2023-07-13T01:10:35;6.87;;;2.73;;
215;SDS011;70668;48.81286795;9.14184224;2023-07-13T01:13:06;6.73;;;2.60;;
215;SDS011;70668;48.81286795;9.14184224;2023-07-13T01:15:37;9.40;;;2.90;;
215;SDS011;70668;48.81286795;9.14184224;2023-07-13T01:18:07;8.27;;;2.87;;
215;SDS011;70668;48.81286795;9.14184224;2023-07-13T01:20:38;7.60;;;2.60;;
215;SDS011;70668;48.81286795;9.14184224;2023-07-13T01:23:10;7.60;;;2.63;;
215;SDS011;70668;48.81286795;9.14184224;2023-07-13T01:25:39;7.50;;;3.00;;
215;SDS011;70668;48.81286795;9.14184224;2023-07-13T01:28:08;5.40;;;2.87;;
215;SDS011;70668;48.81286795;9.14184224;2023-07-13T01:30:38;7.10;;;3.03;;
215;SDS011;70668;48.81286795;9.14184224;2023-07-13T01:33:11;8.50;;;2.90;;
215;SDS011;70668;48.81286795;9.14184224;2023-07-13T01:35:40;6.40;;;2.80;;
215;SDS011;70668;48.81286795;9.14184224;2023-07-13T01:38:11;10.87;;;2.83;;
215;SDS011;70668;48.81286795;9.14184224;2023-07-13T01:40:41;8.57;;;2.90;;
215;SDS011;70668;48.81286795;9.14184224;2023-07-13T01:43:10;4.53;;;2.87;;
215;SDS011;70668;48.81286795;9.14184224;2023-07-13T01:45:38;9.20;;;2.83;;
215;SDS011;70668;48.81286795;9.14184224;2023-07-13T01:48:09;7.33;;;3.10;;
215;SDS011;70668;48.81286795;9.14184224;2023-07-13T01:50:37;7.20;;;3.23;;
215;SDS011;70668;48.81286795;9.14184224;2023-07-13T01:53:06;10.33;;;3.03;;
215;SDS011;70668;48.81286795;9.14184224;2023-07-13T01:55:38;6.07;;;2.90;;
215;SDS011;70668;48.81286795;9.14184224;2023-07-13T01:58:07;12.57;;;3.00;;
215;SDS011;70668;48.81286795;9.14184224;2023-07-13T02:00:35;8.13;;;2.90;;
215;SDS011;70668;48.81286795;9.14184224;2023-07-13T02:03:04;8.83;;;3.40;;
215;SDS011;70668;48.81286795;9.14184224;2023-07-13T02:05:32;7.90;;;3.13;;
215;SDS011;70668;48.81286795;9.14184224;2023-07-13T02:08:00;4.77;;;2.87;;
215;SDS011;70668;48.81286795;9.14184224;2023-07-13T02:10:30;9.20;;;3.00;;
215;SDS011;70668;48.81286795;9.14184224;2023-07-13T02:13:01;11.53;;;2.73;;
215;SDS011;70668;48.81286795;9.14184224;2023-07-13T02:15:29;8.90;;;2.80;;
215;SDS011;70668;48.81286795;9.14184224;2023-07-13T02:17:58;6.47;;;2.80;;
215;SDS011;70668;48.81286795;9.14184224;2023-07-13T02:20:26;6.23;;;2.77;;
215;SDS011;70668;48.81286795;9.14184224;2023-07-13T02:22:55;11.63;;;2.97;;
215;SDS011;70668;48.81286795;9.14184224;2023-07-13T02:25:23;6.80;;;2.47;;
215;SDS011;70668;48.81286795;9.14184224;2023-07-13T02:27:52;8.20;;;2.53;;
215;SDS011;70668;48.81286795;9.14184224;2023-07-13T02:30:23;8.23;;;3.07;;
215;SDS011;70668;48.81286795;9.14184224;2023-07-13T02:32:53;8.80;;;3.17;;
215;SDS011;70668;48.81286795;9.14184224;2023-07-13T02:35:21;7.97;;;3.03;;
215;SDS011;70668;48.81286795;9.14184224;2023-07-13T02:37:50;13.90;;;3.23;;
215;SDS011;70668;48.81286795;9.14184224;2023-07-13T02:40:18;10.73;;;2.83;;
215;SDS011;70668;48.81286795;9.14184224;2023-07-13T02:42:47;5.27;;;2.63;;
215;SDS011;70668;48.81286795;9.14184224;2023-07-13T02:45:15;6.43;;;2.97;;
215;SDS011;70668;48.81286795;9.14184224;2023-07-13T02:47:46;8.73;;;3.20;;
215;SDS011;70668;48.81286795;9.14184224;2023-07-13T02:50:16;6.80;;;3.17;;
215;SDS011;70668;48.81286795;9.14184224;2023-07-13T02:52:44;9.60;;;3.00;;
215;SDS011;70668;48.81286795;9.14184224;2023-07-13T02:55:12;9.63;;;3.30;;
215;SDS011;70668;48.81286795;9.14184224;2023-07-13T02:57:41;6.20;;;2.80;;
215;SDS011;70668;48.81286795;9.14184224;2023-07-13T03:00:10;8.23;;;3.40;;
215;SDS011;70668;48.81286795;9.14184224;2023-07-13T03:02:41;7.93;;;3.30;;
215;SDS011;70668;48.81286795;9.14184224;2023-07-13T03:05:13;5.80;;;3.27;;
215;SDS011;70668;48.81286795;9.14184224;2023-07-13T03:07:43;5.20;;;3.30;;
215;SDS011;70668;48.81286795;9.14184224;2023-07-13T03:10:11;6.60;;;3.10;;
215;SDS011;70668;48.81286795;9.14184224;2023-07-13T03:12:44;7.30;;;3.43;;
215;SDS011;70668;48.81286795;9.14184224;2023-07-13T03:15:22;10.90;;;3.50;;
215;SDS011;70668;48.81286795;9.14184224;2023-07-13T03:17:52;5.30;;;3.30;;
215;SDS011;70668;48.81286795;9.14184224;2023-07-13T03:20:23;9.03;;;3.40;;
215;SDS011;70668;48.81286795;9.14184224;2023-07-13T03:22:52;7.10;;;3.53;;
215;SDS011;70668;48.81286795;9.14184224;2023-07-13T03:25:21;10.03;;;3.23;;
215;SDS011;70668;48.81286795;9.14184224;2023-07-13T03:27:50;7.50;;;3.37;;
215;SDS011;70668;48.81286795;9.14184224;2023-07-13T03:30:18;7.70;;;3.30;;
215;SDS011;70668;48.81286795;9.14184224;2023-07-13T03:32:46;7.17;;;3.30;;
215;SDS011;70668;48.81286795;9.14184224;2023-07-13T03:35:17;5.10;;;3.33;;
215;SDS011;70668;48.81286795;9.14184224;2023-07-13T03:37:48;7.33;;;3.30;;
215;SDS011;70668;48.81286795;9.14184224;2023-07-13T03:40:19;12.40;;;3.13;;
215;SDS011;70668;48.81286795;9.14184224;2023-07-13T03:42:47;6.80;;;3.63;;
215;SDS011;70668;48.81286795;9.14184224;2023-07-13T03:45:17;5.23;;;2.80;;
215;SDS011;70668;48.81286795;9.14184224;2023-07-13T03:47:46;8.70;;;3.20;;
215;SDS011;70668;48.81286795;9.14184224;2023-07-13T03:50:17;6.87;;;2.90;;
215;SDS011;70668;48.81286795;9.14184224;2023-07-13T03:52:48;5.30;;;3.50;;
215;SDS011;70668;48.81286795;9.14184224;2023-07-13T03:55:16;9.90;;;3.67;;
215;SDS011;70668;48.81286795;9.14184224;2023-07-13T03:57:45;6.00;;;3.57;;
215;SDS011;70668;48.81286795;9.14184224;2023-07-13T04:00:14;8.93;;;3.77;;
215;SDS011;70668;48.81286795;9.14184224;2023-07-13T04:02:42;8.13;;;3.50;;
215;SDS011;70668;48.81286795;9.14184224;2023-07-13T04:05:12;7.30;;;3.40;;
215;SDS011;70668;48.81286795;9.14184224;2023-07-13T04:07:42;10.60;;;3.30;;
215;SDS011;70668;48.81286795;9.14184224;2023-07-13T04:10:13;7.03;;;3.53;;
215;SDS011;70668;48.81286795;9.14184224;2023-07-13T04:12:42;8.80;;;3.30;;
215;SDS011;70668;48.81286795;9.14184224;2023-07-13T04:15:10;6.87;;;3.50;;
215;SDS011;70668;48.81286795;9.14184224;2023-07-13T04:17:38;10.73;;;3.10;;
215;SDS011;70668;48.81286795;9.14184224;2023-07-13T04:20:07;6.47;;;3.60;;
215;SDS011;70668;48.81286795;9.14184224;2023-07-13T04:22:36;7.10;;;3.60;;
215;SDS011;70668;48.81286795;9.14184224;2023-07-13T04:25:05;7.90;;;3.10;;
215;SDS011;70668;48.81286795;9.14184224;2023-07-13T04:27:37;8.17;;;3.30;;
215;SDS011;70668;48.81286795;9.14184224;2023-07-13T04:30:06;9.80;;;3.30;;
215;SDS011;70668;48.81286795;9.14184224;2023-07-13T04:32:35;8.30;;;3.53;;
215;SDS011;70668;48.81286795;9.14184224;2023-07-13T04:35:04;6.53;;;3.20;;
215;SDS011;70668;48.81286795;9.14184224;2023-07-13T04:37:33;11.70;;;3.70;;
215;SDS011;70668;48.81286795;9.14184224;2023-07-13T04:40:02;5.50;;;3.47;;
215;SDS011;70668;48.81286795;9.14184224;2023-07-13T04:42:31;6.30;;;3.20;;
215;SDS011;70668;48.81286795;9.14184224;2023-07-13T04:45:03;6.30;;;2.93;;
215;SDS011;70668;48.81286795;9.14184224;2023-07-13T04:47:32;7.47;;;3.50;;
215;SDS011;70668;48.81286795;9.14184224;2023-07-13T04:50:00;10.43;;;3.37;;
215;SDS011;70668;48.81286795;9.14184224;2023-07-13T04:52:29;6.43;;;3.47;;
215;SDS011;70668;48.81286795;9.14184224;2023-07-13T04:54:58;7.30;;;3.33;;
215;SDS011;70668;48.81286795;9.14184224;2023-07-13T04:57:26;11.80;;;3.60;;
215;SDS011;70668;48.81286795;9.14184224;2023-07-13T04:59:55;9.53;;;3.90;;
215;SDS011;70668;48.81286795;9.14184224;2023-07-13T05:02:28;6.43;;;3.23;;
215;SDS011;70668;48.81286795;9.14184224;2023-07-13T05:04:58;6.40;;;3.47;;
215;SDS011;70668;48.81286795;9.14184224;2023-07-13T05:07:26;10.00;;;3.63;;
215;SDS011;70668;48.81286795;9.14184224;2023-07-13T05:09:55;6.60;;;3.77;;
215;SDS011;70668;48.81286795;9.14184224;2023-07-13T05:12:23;8.80;;;3.50;;
215;SDS011;70668;48.81286795;9.14184224;2023-07-13T05:14:52;11.67;;;3.80;;
215;SDS011;70668;48.81286795;9.14184224;2023-07-13T05:17:20;7.63;;;4.00;;
215;SDS011;70668;48.81286795;9.14184224;2023-07-13T05:19:51;13.23;;;4.07;;
215;SDS011;70668;48.81286795;9.14184224;2023-07-13T05:22:20;13.73;;;4.23;;
215;SDS011;70668;48.81286795;9.14184224;2023-07-13T05:24:48;8.53;;;3.37;;
215;SDS011;70668;48.81286795;9.14184224;2023-07-13T05:27:16;6.43;;;3.90;;
215;SDS011;70668;48.81286795;9.14184224;2023-07-13T05:29:45;10.53;;;4.00;;
215;SDS011;70668;48.81286795;9.14184224;2023-07-13T05:32:13;7.77;;;4.40;;
215;SDS011;70668;48.81286795;9.14184224;2023-07-13T05:34:41;8.07;;;3.70;;
215;SDS011;70668;48.81286795;9.14184224;2023-07-13T05:37:12;7.30;;;3.40;;
215;SDS011;70668;48.81286795;9.14184224;2023-07-13T05:39:41;7.87;;;3.60;;
215;SDS011;70668;48.81286795;9.14184224;2023-07-13T05:42:09;10.43;;;3.43;;
215;SDS011;70668;48.81286795;9.14184224;2023-07-13T05:44:37;8.50;;;3.23;;
215;SDS011;70668;48.81286795;9.14184224;2023-07-13T05:47:06;7.27;;;3.60;;
215;SDS011;70668;48.81286795;9.14184224;2023-07-13T05:49:34;8.60;;;3.77;;
215;SDS011;70668;48.81286795;9.14184224;2023-07-13T05:52:03;6.23;;;3.47;;
215;SDS011;70668;48.81286795;9.14184224;2023-07-13T05:54:35;13.20;;;3.70;;
215;SDS011;70668;48.81286795;9.14184224;2023-07-13T05:57:04;7.30;;;3.50;;
215;SDS011;70668;48.81286795;9.14184224;2023-07-13T05:59:33;9.07;;;3.27;;
215;SDS011;70668;48.81286795;9.14184224;2023-07-13T06:02:01;8.00;;;3.60;;
215;SDS011;70668;48.81286795;9.14184224;2023-07-13T06:04:29;9.03;;;3.57;;
215;SDS011;70668;48.81286795;9.14184224;2023-07-13T06:06:58;7.30;;;3.40;;
215;SDS011;70668;48.81286795;9.14184224;2023-07-13T06:09:26;9.47;;;3.40;;
215;SDS011;70668;48.81286795;9.14184224;2023-07-13T06:11:57;7.20;;;3.60;;
215;SDS011;70668;48.81286795;9.14184224;2023-07-13T06:14:26;7.13;;;3.50;;
215;SDS011;70668;48.81286795;9.14184224;2023-07-13T06:16:54;8.87;;;3.67;;
215;SDS011;70668;48.81286795;9.14184224;2023-07-13T06:19:22;7.40;;;3.17;;
215;SDS011;70668;48.81286795;9.14184224;2023-07-13T06:21:51;7.90;;;3.50;;
215;SDS011;70668;48.81286795;9.14184224;2023-07-13T06:24:19;8.43;;;3.30;;
215;SDS011;70668;48.81286795;9.14184224;2023-07-13T06:26:48;5.70;;;3.37;;
215;SDS011;70668;48.81286795;9.14184224;2023-07-13T06:29:19;7.90;;;3.77;;
215;SDS011;70668;48.81286795;9.14184224;2023-07-13T06:31:47;8.93;;;3.57;;
215;SDS011;70668;48.81286795;9.14184224;2023-07-13T06:34:15;7.03;;;3.40;;
215;SDS011;70668;48.81286795;9.14184224;2023-07-13T06:36:44;10.40;;;3.70;;
215;SDS011;70668;48.81286795;9.14184224;2023-07-13T06:39:12;7.30;;;3.40;;
215;SDS011;70668;48.81286795;9.14184224;2023-07-13T06:41:41;9.80;;;3.53;;
215;SDS011;70668;48.81286795;9.14184224;2023-07-13T06:44:13;6.20;;;3.30;;
215;SDS011;70668;48.81286795;9.14184224;2023-07-13T06:46:43;11.33;;;3.30;;
215;SDS011;70668;48.81286795;9.14184224;2023-07-13T06:49:12;7.17;;;3.60;;
215;SDS011;70668;48.81286795;9.14184224;2023-07-13T06:51:40;6.70;;;3.40;;
215;SDS011;70668;48.81286795;9.14184224;2023-07-13T06:54:09;5.73;;;3.07;;
215;SDS011;70668;48.81286795;9.14184224;2023-07-13T06:56:37;4.13;;;2.67;;
215;SDS011;70668;48.81286795;9.14184224;2023-07-13T06:59:06;6.23;;;2.70;;
215;SDS011;70668;48.81286795;9.14184224;2023-07-13T07:01:34;7.50;;;3.10;;
215;SDS011;70668;48.81286795;9.14184224;2023-07-13T07:04:05;9.40;;;2.77;;
215;SDS011;70668;48.81286795;9.14184224;2023-07-13T07:06:33;6.30;;;3.00;;
215;SDS011;70668;48.81286795;9.14184224;2023-07-13T07:09:02;9.57;;;3.23;;
215;SDS011;70668;48.81286795;9.14184224;2023-07-13T07:11:30;5.53;;;2.90;;
215;SDS011;70668;48.81286795;9.14184224;2023-07-13T07:13:59;6.23;;;2.90;;
215;SDS011;70668;48.81286795;9.14184224;2023-07-13T07:16:27;9.00;;;3.20;;
215;SDS011;70668;48.81286795;9.14184224;2023-07-13T07:18:55;4.60;;;2.70;;
215;SDS011;70668;48.81286795;9.14184224;2023-07-13T07:21:27;5.53;;;2.80;;
215;SDS011;70668;48.81286795;9.14184224;2023-07-13T07:23:56;6.83;;;2.70;;
215;SDS011;70668;48.81286795;9.14184224;2023-07-13T07:26:25;5.40;;;2.80;;
215;SDS011;70668;48.81286795;9.14184224;2023-07-13T07:28:54;7.97;;;3.10;;
215;SDS011;70668;48.81286795;9.14184224;2023-07-13T07:31:22;7.93;;;3.00;;
215;SDS011;70668;48.81286795;9.14184224;2023-07-13T07:33:50;6.63;;;3.13;;
215;SDS011;70668;48.81286795;9.14184224;2023-07-13T07:36:19;7.53;;;2.90;;
215;SDS011;70668;48.81286795;9.14184224;2023-07-13T07:38:50;12.43;;;3.13;;
215;SDS011;70668;48.81286795;9.14184224;2023-07-13T07:41:18;5.30;;;2.57;;
215;SDS011;70668;48.81286795;9.14184224;2023-07-13T07:43:46;10.50;;;2.90;;
215;SDS011;70668;48.81286795;9.14184224;2023-07-13T07:46:15;5.80;;;2.60;;
215;SDS011;70668;48.81286795;9.14184224;2023-07-13T07:48:43;6.87;;;2.60;;
215;SDS011;70668;48.81286795;9.14184224;2023-07-13T07:51:12;14.27;;;2.87;;
215;SDS011;70668;48.81286795;9.14184224;2023-07-13T07:53:40;8.60;;;2.67;;
215;SDS011;70668;48.81286795;9.14184224;2023-07-13T07:56:11;5.97;;;2.80;;
215;SDS011;70668;48.81286795;9.14184224;2023-07-13T07:58:41;5.30;;;2.70;;
215;SDS011;70668;48.81286795;9.14184224;2023-07-13T08:01:09;6.33;;;2.50;;
215;SDS011;70668;48.81286795;9.14184224;2023-07-13T08:03:38;10.50;;;3.90;;
215;SDS011;70668;48.81286795;9.14184224;2023-07-13T08:06:07;6.50;;;2.43;;
215;SDS011;70668;48.81286795;9.14184224;2023-07-13T08:08:35;9.37;;;2.50;;
215;SDS011;70668;48.81286795;9.14184224;2023-07-13T08:11:04;8.70;;;2.77;;
215;SDS011;70668;48.81286795;9.14184224;2023-07-13T08:13:35;6.63;;;2.70;;
215;SDS011;70668;48.81286795;9.14184224;2023-07-13T08:16:03;5.23;;;2.60;;
215;SDS011;70668;48.81286795;9.14184224;2023-07-13T08:18:33;11.00;;;2.87;;
215;SDS011;70668;48.81286795;9.14184224;2023-07-13T08:21:03;8.13;;;2.80;;
215;SDS011;70668;48.81286795;9.14184224;2023-07-13T08:23:32;9.80;;;2.63;;
215;SDS011;70668;48.81286795;9.14184224;2023-07-13T08:26:00;6.07;;;2.73;;
215;SDS011;70668;48.81286795;9.14184224;2023-07-13T08:28:29;8.53;;;2.80;;
215;SDS011;70668;48.81286795;9.14184224;2023-07-13T08:31:02;7.87;;;3.10;;
215;SDS011;70668;48.81286795;9.14184224;2023-07-13T08:33:33;15.13;;;2.80;;
215;SDS011;70668;48.81286795;9.14184224;2023-07-13T08:36:03;8.40;;;2.80;;
215;SDS011;70668;48.81286795;9.14184224;2023-07-13T08:38:32;6.33;;;2.60;;
215;SDS011;70668;48.81286795;9.14184224;2023-07-13T08:41:03;11.80;;;2.80;;
215;SDS011;70668;48.81286795;9.14184224;2023-07-13T08:43:38;7.17;;;2.80;;
215;SDS011;70668;48.81286795;9.14184224;2023-07-13T08:46:12;7.53;;;2.80;;
215;SDS011;70668;48.81286795;9.14184224;2023-07-13T08:48:43;11.63;;;2.67;;
215;SDS011;70668;48.81286795;9.14184224;2023-07-13T08:51:20;7.57;;;2.63;;
215;SDS011;70668;48.81286795;9.14184224;2023-07-13T08:53:54;9.53;;;2.70;;
215;SDS011;70668;48.81286795;9.14184224;2023-07-13T08:56:27;10.73;;;2.97;;
215;SDS011;70668;48.81286795;9.14184224;2023-07-13T08:58:57;11.50;;;3.07;;
215;SDS011;70668;48.81286795;9.14184224;2023-07-13T09:01:31;8.10;;;2.73;;
215;SDS011;70668;48.81286795;9.14184224;2023-07-13T09:04:04;5.60;;;2.83;;
215;SDS011;70668;48.81286795;9.14184224;2023-07-13T09:06:35;7.97;;;2.70;;
215;SDS011;70668;48.81286795;9.14184224;2023-07-13T09:09:16;8.53;;;2.97;;
215;SDS011;70668;48.81286795;9.14184224;2023-07-13T09:11:52;8.27;;;2.80;;
215;SDS011;70668;48.81286795;9.14184224;2023-07-13T09:14:34;8.23;;;2.67;;
215;SDS011;70668;48.81286795;9.14184224;2023-07-13T09:17:13;6.13;;;2.47;;
215;SDS011;70668;48.81286795;9.14184224;2023-07-13T09:19:44;10.53;;;3.00;;
215;SDS011;70668;48.81286795;9.14184224;2023-07-13T09:22:16;6.33;;;2.60;;
215;SDS011;70668;48.81286795;9.14184224;2023-07-13T09:24:50;11.30;;;3.47;;
215;SDS011;70668;48.81286795;9.14184224;2023-07-13T09:27:21;5.90;;;2.80;;
215;SDS011;70668;48.81286795;9.14184224;2023-07-13T09:29:52;5.70;;;2.67;;
215;SDS011;70668;48.81286795;9.14184224;2023-07-13T09:32:26;9.00;;;3.00;;
215;SDS011;70668;48.81286795;9.14184224;2023-07-13T09:34:55;5.50;;;2.73;;
215;SDS011;70668;48.81286795;9.14184224;2023-07-13T09:37:28;8.73;;;2.80;;
215;SDS011;70668;48.81286795;9.14184224;2023-07-13T09:39:59;9.60;;;3.00;;
215;SDS011;70668;48.81286795;9.14184224;2023-07-13T09:42:30;7.83;;;2.73;;
215;SDS011;70668;48.81286795;9.14184224;2023-07-13T09:45:00;11.83;;;3.20;;
215;SDS011;70668;48.81286795;9.14184224;2023-07-13T09:47:38;6.60;;;2.60;;
215;SDS011;70668;48.81286795;9.14184224;2023-07-13T09:50:14;6.13;;;2.90;;
215;SDS011;70668;48.81286795;9.14184224;2023-07-13T09:52:44;8.13;;;2.83;;
215;SDS011;70668;48.81286795;9.14184224;2023-07-13T09:55:24;13.67;;;2.90;;
215;SDS011;70668;48.81286795;9.14184224;2023-07-13T09:57:53;5.73;;;2.70;;
215;SDS011;70668;48.81286795;9.14184224;2023-07-13T10:00:22;8.83;;;2.97;;
215;SDS011;70668;48.81286795;9.14184224;2023-07-13T10:03:02;8.57;;;3.07;;
215;SDS011;70668;48.81286795;9.14184224;2023-07-13T10:05:38;5.23;;;2.50;;
215;SDS011;70668;48.81286795;9.14184224;2023-07-13T10:08:15;9.13;;;2.90;;
215;SDS011;70668;48.81286795;9.14184224;2023-07-13T10:10:45;6.47;;;3.00;;
215;SDS011;70668;48.81286795;9.14184224;2023-07-13T10:13:23;7.77;;;3.30;;
215;SDS011;70668;48.81286795;9.14184224;2023-07-13T10:15:54;6.43;;;2.80;;
215;SDS011;70668;48.81286795;9.14184224;2023-07-13T10:18:25;6.20;;;2.83;;
215;SDS011;70668;48.81286795;9.14184224;2023-07-13T10:20:58;7.87;;;2.73;;
215;SDS011;70668;48.81286795;9.14184224;2023-07-13T10:23:39;6.50;;;2.73;;
215;SDS011;70668;48.81286795;9.14184224;2023-07-13T10:26:09;5.57;;;2.83;;
215;SDS011;70668;48.81286795;9.14184224;2023-07-13T10:28:41;9.00;;;2.57;;
215;SDS011;70668;48.81286795;9.14184224;2023-07-13T10:31:13;8.07;;;2.90;;
215;SDS011;70668;48.81286795;9.14184224;2023-07-13T10:33:45;7.43;;;2.93;;
215;SDS011;70668;48.81286795;9.14184224;2023-07-13T10:36:16;5.10;;;2.70;;
215;SDS011;70668;48.81286795;9.14184224;2023-07-13T10:38:48;5.87;;;2.73;;
215;SDS011;70668;48.81286795;9.14184224;2023-07-13T10:41:19;6.53;;;3.03;;
215;SDS011;70668;48.81286795;9.14184224;2023-07-13T10:43:50;9.33;;;3.07;;
215;SDS011;70668;48.81286795;9.14184224;2023-07-13T10:46:22;5.97;;;2.80;;
215;SDS011;70668;48.81286795;9.14184224;2023-07-13T10:48:56;24.17;;;3.30;;
215;SDS011;70668;48.81286795;9.14184224;2023-07-13T10:51:26;5.10;;;2.70;;
215;SDS011;70668;48.81286795;9.14184224;2023-07-13T10:56:40;9.03;;;2.80;;
215;SDS011;70668;48.81286795;9.14184224;2023-07-13T10:59:10;6.33;;;2.77;;
215;SDS011;70668;48.81286795;9.14184224;2023-07-13T11:01:40;11.43;;;3.30;;
215;SDS011;70668;48.81286795;9.14184224;2023-07-13T11:04:19;10.70;;;2.90;;
215;SDS011;70668;48.81286795;9.14184224;2023-07-13T11:06:50;7.47;;;2.90;;
215;SDS011;70668;48.81286795;9.14184224;2023-07-13T11:09:34;6.00;;;2.83;;
215;SDS011;70668;48.81286795;9.14184224;2023-07-13T11:12:09;7.77;;;2.73;;
215;SDS011;70668;48.81286795;9.14184224;2023-07-13T11:14:43;7.17;;;3.30;;
215;SDS011;70668;48.81286795;9.14184224;2023-07-13T11:17:46;8.20;;;3.30;;
215;SDS011;70668;48.81286795;9.14184224;2023-07-13T11:23:19;5.97;;;2.90;;
215;SDS011;70668;48.81286795;9.14184224;2023-07-13T11:26:01;7.33;;;2.70;;
215;SDS011;70668;48.81286795;9.14184224;2023-07-13T11:28:30;6.57;;;3.10;;
215;SDS011;70668;48.81286795;9.14184224;2023-07-13T11:31:01;4.93;;;2.77;;
215;SDS011;70668;48.81286795;9.14184224;2023-07-13T11:33:45;11.80;;;2.90;;
215;SDS011;70668;48.81286795;9.14184224;2023-07-13T11:36:30;5.10;;;2.60;;
215;SDS011;70668;48.81286795;9.14184224;2023-07-13T11:39:01;6.07;;;2.73;;
215;SDS011;70668;48.81286795;9.14184224;2023-07-13T11:41:31;5.73;;;3.00;;
215;SDS011;70668;48.81286795;9.14184224;2023-07-13T11:44:07;7.73;;;2.90;;
215;SDS011;70668;48.81286795;9.14184224;2023-07-13T11:46:44;10.10;;;3.20;;
215;SDS011;70668;48.81286795;9.14184224;2023-07-13T11:49:15;4.67;;;2.67;;
215;SDS011;70668;48.81286795;9.14184224;2023-07-13T11:51:47;5.87;;;2.70;;
215;SDS011;70668;48.81286795;9.14184224;2023-07-13T11:54:23;6.23;;;2.70;;
215;SDS011;70668;48.81286795;9.14184224;2023-07-13T11:56:55;8.20;;;2.97;;
215;SDS011;70668;48.81286795;9.14184224;2023-07-13T11:59:25;6.33;;;3.00;;
215;SDS011;70668;48.81286795;9.14184224;2023-07-13T12:01:54;8.20;;;3.30;;
215;SDS011;70668;48.81286795;9.14184224;2023-07-13T12:04:24;8.20;;;3.17;;
215;SDS011;70668;48.81286795;9.14184224;2023-07-13T12:07:04;9.37;;;3.10;;
215;SDS011;70668;48.81286795;9.14184224;2023-07-13T12:09:34;6.80;;;3.17;;
215;SDS011;70668;48.81286795;9.14184224;2023-07-13T12:12:03;6.73;;;2.70;;
215;SDS011;70668;48.81286795;9.14184224;2023-07-13T12:14:36;7.63;;;3.00;;
215;SDS011;70668;48.81286795;9.14184224;2023-07-13T12:17:07;7.03;;;3.00;;
215;SDS011;70668;48.81286795;9.14184224;2023-07-13T12:19:37;6.00;;;3.20;;
215;SDS011;70668;48.81286795;9.14184224;2023-07-13T12:22:11;7.77;;;2.97;;
215;SDS011;70668;48.81286795;9.14184224;2023-07-13T12:24:40;10.60;;;3.37;;
215;SDS011;70668;48.81286795;9.14184224;2023-07-13T12:27:13;13.93;;;3.10;;
215;SDS011;70668;48.81286795;9.14184224;2023-07-13T12:29:51;18.93;;;3.77;;
215;SDS011;70668;48.81286795;9.14184224;2023-07-13T12:32:21;6.17;;;3.00;;
215;SDS011;70668;48.81286795;9.14184224;2023-07-13T12:34:51;8.10;;;3.00;;
215;SDS011;70668;48.81286795;9.14184224;2023-07-13T12:37:24;9.70;;;3.20;;
215;SDS011;70668;48.81286795;9.14184224;2023-07-13T12:39:53;9.17;;;3.37;;
215;SDS011;70668;48.81286795;9.14184224;2023-07-13T12:42:22;9.60;;;3.20;;
215;SDS011;70668;48.81286795;9.14184224;2023-07-13T12:44:53;10.50;;;3.30;;
215;SDS011;70668;48.81286795;9.14184224;2023-07-13T12:47:23;8.73;;;2.90;;
215;SDS011;70668;48.81286795;9.14184224;2023-07-13T12:49:54;9.30;;;3.10;;
215;SDS011;70668;48.81286795;9.14184224;2023-07-13T12:52:28;6.30;;;3.40;;
215;SDS011;70668;48.81286795;9.14184224;2023-07-13T12:54:58;10.77;;;2.90;;
215;SDS011;70668;48.81286795;9.14184224;2023-07-13T12:57:31;7.97;;;3.40;;
215;SDS011;70668;48.81286795;9.14184224;2023-07-13T12:59:59;5.73;;;2.80;;
215;SDS011;70668;48.81286795;9.14184224;2023-07-13T13:02:30;5.70;;;2.70;;
215;SDS011;70668;48.81286795;9.14184224;2023-07-13T13:05:01;7.00;;;3.23;;
215;SDS011;70668;48.81286795;9.14184224;2023-07-13T13:07:34;8.60;;;3.00;;
215;SDS011;70668;48.81286795;9.14184224;2023-07-13T13:10:07;19.97;;;3.30;;
215;SDS011;70668;48.81286795;9.14184224;2023-07-13T13:12:39;9.30;;;3.00;;
215;SDS011;70668;48.81286795;9.14184224;2023-07-13T13:15:08;9.10;;;3.20;;
215;SDS011;70668;48.81286795;9.14184224;2023-07-13T13:17:38;6.10;;;3.00;;
215;SDS011;70668;48.81286795;9.14184224;2023-07-13T13:20:12;10.00;;;3.30;;
215;SDS011;70668;48.81286795;9.14184224;2023-07-13T13:22:45;6.90;;;3.33;;
215;SDS011;70668;48.81286795;9.14184224;2023-07-13T13:25:14;9.13;;;3.00;;
215;SDS011;70668;48.81286795;9.14184224;2023-07-13T13:27:43;6.73;;;3.00;;
215;SDS011;70668;48.81286795;9.14184224;2023-07-13T13:32:42;12.30;;;3.10;;
215;SDS011;70668;48.81286795;9.14184224;2023-07-13T13:35:12;10.10;;;3.17;;
215;SDS011;70668;48.81286795;9.14184224;2023-07-13T13:37:41;8.20;;;3.00;;